createdAt,value
2018-11-06T00:00:05.671Z,4.00
2018-11-06T00:01:05.712Z,4.00
2018-11-06T00:02:05.757Z,4.00
2018-11-06T00:03:05.802Z,4.00
2018-11-06T00:04:05.830Z,4.00
2018-11-06T00:05:05.904Z,4.00
2018-11-06T00:06:05.933Z,4.00
2018-11-06T00:07:05.959Z,4.00
2018-11-06T00:08:06.056Z,4.00
2018-11-06T00:09:06.062Z,4.00
2018-11-06T00:10:06.232Z,4.00
2018-11-06T00:11:06.137Z,4.00
2018-11-06T00:12:06.202Z,4.00
2018-11-06T00:13:06.236Z,4.00
2018-11-06T00:14:06.330Z,4.00
2018-11-06T00:15:06.336Z,4.00
2018-11-06T00:16:06.371Z,4.00
2018-11-06T00:17:06.464Z,4.00
2018-11-06T00:18:06.469Z,4.00
2018-11-06T00:19:06.536Z,4.00
2018-11-06T00:20:06.563Z,4.00
2018-11-06T00:21:06.686Z,4.00
2018-11-06T00:22:06.635Z,4.00
2018-11-06T00:23:06.680Z,4.00
2018-11-06T00:24:06.727Z,4.00
2018-11-06T00:25:06.769Z,4.00
2018-11-06T00:26:06.848Z,4.00
2018-11-06T00:27:06.863Z,4.00
2018-11-06T00:28:06.876Z,4.00
2018-11-06T00:29:06.966Z,4.00
2018-11-06T00:30:06.999Z,4.00
2018-11-06T00:31:07.123Z,4.00
2018-11-06T00:32:07.064Z,4.00
2018-11-06T00:33:07.126Z,4.00
2018-11-06T00:34:07.182Z,4.00
2018-11-06T00:35:07.205Z,4.00
2018-11-06T00:36:07.274Z,4.00
2018-11-06T00:37:07.324Z,4.00
2018-11-06T00:38:07.365Z,4.00
2018-11-06T00:39:07.382Z,4.00
2018-11-06T00:40:07.421Z,4.00
2018-11-06T00:41:07.471Z,4.00
2018-11-06T00:42:07.491Z,4.00
2018-11-06T00:43:07.547Z,4.00
2018-11-06T00:44:07.596Z,4.00
2018-11-06T00:45:07.635Z,4.00
2018-11-06T00:46:07.667Z,4.00
2018-11-06T00:47:07.747Z,4.00
2018-11-06T00:48:07.747Z,4.00
2018-11-06T00:49:07.799Z,0.00
2018-11-06T00:50:07.924Z,0.00
2018-11-06T00:51:07.880Z,0.00
2018-11-06T00:52:07.924Z,0.00
2018-11-06T00:53:07.973Z,0.00
2018-11-06T00:54:08.087Z,0.00
2018-11-06T00:55:08.069Z,0.00
2018-11-06T00:56:08.114Z,0.00
2018-11-06T00:57:08.144Z,0.00
2018-11-06T00:58:08.217Z,0.00
2018-11-06T00:59:08.243Z,0.00
2018-11-06T01:00:08.421Z,0.00
2018-11-06T01:01:08.359Z,0.00
2018-11-06T01:02:08.366Z,0.00
2018-11-06T01:03:08.403Z,0.00
2018-11-06T01:04:08.468Z,0.00
2018-11-06T01:05:08.496Z,0.00
2018-11-06T01:06:08.595Z,0.00
2018-11-06T01:07:08.696Z,0.00
2018-11-06T01:08:08.621Z,0.00
2018-11-06T01:09:08.676Z,0.00
2018-11-06T01:10:08.709Z,0.00
2018-11-06T01:11:08.765Z,0.00
2018-11-06T01:12:08.874Z,0.00
2018-11-06T01:13:08.872Z,0.00
2018-11-06T01:14:08.914Z,0.00
2018-11-06T01:15:08.993Z,0.00
2018-11-06T01:16:08.974Z,0.00
2018-11-06T01:17:09.020Z,0.00
2018-11-06T01:18:09.091Z,0.00
2018-11-06T01:19:09.105Z,0.00
2018-11-06T01:20:09.156Z,0.00
2018-11-06T01:21:09.199Z,0.00
2018-11-06T01:22:09.241Z,0.00
2018-11-06T01:23:09.273Z,0.00
2018-11-06T01:24:09.325Z,0.00
2018-11-06T01:25:09.352Z,0.00
2018-11-06T01:26:09.421Z,0.00
2018-11-06T01:27:09.432Z,0.00
2018-11-06T01:28:09.497Z,0.00
2018-11-06T01:29:09.537Z,0.00
2018-11-06T01:30:09.600Z,0.00
2018-11-06T01:31:09.615Z,0.00
2018-11-06T01:32:09.673Z,0.00
2018-11-06T01:33:09.727Z,0.00
2018-11-06T01:34:09.870Z,0.00
2018-11-06T01:35:09.805Z,0.00
2018-11-06T01:36:09.838Z,0.00
2018-11-06T01:37:09.899Z,0.00
2018-11-06T01:38:09.989Z,0.00
2018-11-06T01:39:09.978Z,0.00
2018-11-06T01:40:10.033Z,0.00
2018-11-06T01:41:10.078Z,0.00
2018-11-06T01:42:10.120Z,0.00
2018-11-06T01:43:10.141Z,0.00
2018-11-06T01:44:10.184Z,0.00
2018-11-06T01:45:10.258Z,0.00
2018-11-06T01:46:10.286Z,0.00
2018-11-06T01:47:10.354Z,0.00
2018-11-06T01:48:10.403Z,0.00
2018-11-06T01:49:10.392Z,0.00
2018-11-06T01:50:10.460Z,0.00
2018-11-06T01:51:10.482Z,0.00
2018-11-06T01:52:10.576Z,0.00
2018-11-06T01:53:10.592Z,0.00
2018-11-06T01:54:10.639Z,0.00
2018-11-06T01:55:10.657Z,0.00
2018-11-06T01:56:10.823Z,0.00
2018-11-06T01:57:10.765Z,0.00
2018-11-06T01:58:10.794Z,0.00
2018-11-06T01:59:10.854Z,0.00
2018-11-06T02:00:10.903Z,0.00
2018-11-06T02:01:11.103Z,0.00
2018-11-06T02:02:10.970Z,0.00
2018-11-06T02:03:11.080Z,0.00
2018-11-06T02:04:11.075Z,0.00
2018-11-06T02:05:11.165Z,0.00
2018-11-06T02:06:11.256Z,0.00
2018-11-06T02:07:11.189Z,0.00
2018-11-06T02:08:11.299Z,0.00
2018-11-06T02:09:11.334Z,0.00
2018-11-06T02:10:11.372Z,0.00
2018-11-06T02:11:11.396Z,0.00
2018-11-06T02:12:11.561Z,0.00
2018-11-06T02:13:11.516Z,0.00
2018-11-06T02:14:11.500Z,0.00
2018-11-06T02:15:11.601Z,0.00
2018-11-06T02:16:11.599Z,0.00
2018-11-06T02:17:11.771Z,0.00
2018-11-06T02:18:11.717Z,0.00
2018-11-06T02:19:11.753Z,0.00
2018-11-06T02:20:11.804Z,0.00
2018-11-06T02:21:11.866Z,0.00
2018-11-06T02:22:11.908Z,0.00
2018-11-06T02:23:12.043Z,0.00
2018-11-06T02:24:11.991Z,0.00
2018-11-06T02:25:12.038Z,0.00
2018-11-06T02:26:12.080Z,0.00
2018-11-06T02:27:12.111Z,0.00
2018-11-06T02:28:12.204Z,0.00
2018-11-06T02:29:12.206Z,0.00
2018-11-06T02:30:12.251Z,0.00
2018-11-06T02:31:12.295Z,0.00
2018-11-06T02:32:12.384Z,0.00
2018-11-06T02:33:12.385Z,0.00
2018-11-06T02:34:12.532Z,0.00
2018-11-06T02:35:12.472Z,0.00
2018-11-06T02:36:12.491Z,0.00
2018-11-06T02:37:12.554Z,0.00
2018-11-06T02:38:12.607Z,0.00
2018-11-06T02:39:12.630Z,0.00
2018-11-06T02:40:12.674Z,0.00
2018-11-06T02:41:12.726Z,0.00
2018-11-06T02:42:12.724Z,0.00
2018-11-06T02:43:12.765Z,0.00
2018-11-06T02:44:12.824Z,0.00
2018-11-06T02:45:12.932Z,0.00
2018-11-06T02:46:12.895Z,0.00
2018-11-06T02:47:12.928Z,0.00
2018-11-06T02:48:12.977Z,0.00
2018-11-06T02:49:13.023Z,0.00
2018-11-06T02:50:13.107Z,0.00
2018-11-06T02:51:13.126Z,0.00
2018-11-06T02:52:13.191Z,0.00
2018-11-06T02:53:13.199Z,0.00
2018-11-06T02:54:13.241Z,0.00
2018-11-06T02:55:13.293Z,0.00
2018-11-06T02:56:13.326Z,0.00
2018-11-06T02:57:13.408Z,0.00
2018-11-06T02:58:13.439Z,0.00
2018-11-06T02:59:13.471Z,0.00
2018-11-06T03:00:13.590Z,0.00
2018-11-06T03:01:13.562Z,0.00
2018-11-06T03:02:13.631Z,0.00
2018-11-06T03:03:13.639Z,0.00
2018-11-06T03:04:13.672Z,0.00
2018-11-06T03:05:13.717Z,0.00
2018-11-06T03:06:13.759Z,0.00
2018-11-06T03:07:13.821Z,0.00
2018-11-06T03:08:13.869Z,0.00
2018-11-06T03:09:13.906Z,0.00
2018-11-06T03:10:14.098Z,0.00
2018-11-06T03:11:13.996Z,0.00
2018-11-06T03:12:14.031Z,0.00
2018-11-06T03:13:14.115Z,0.00
2018-11-06T03:14:14.115Z,0.00
2018-11-06T03:15:14.171Z,0.00
2018-11-06T03:16:14.185Z,0.00
2018-11-06T03:17:14.254Z,0.00
2018-11-06T03:18:14.290Z,0.00
2018-11-06T03:19:14.352Z,0.00
2018-11-06T03:20:14.468Z,0.00
2018-11-06T03:21:14.434Z,0.00
2018-11-06T03:22:14.479Z,0.00
2018-11-06T03:23:14.504Z,0.00
2018-11-06T03:24:14.589Z,0.00
2018-11-06T03:25:14.623Z,0.00
2018-11-06T03:26:14.631Z,0.00
2018-11-06T03:27:14.682Z,0.00
2018-11-06T03:28:14.728Z,0.00
2018-11-06T03:29:14.817Z,0.00
2018-11-06T03:30:14.826Z,0.00
2018-11-06T03:31:14.967Z,0.00
2018-11-06T03:32:14.898Z,0.00
2018-11-06T03:33:14.958Z,0.00
2018-11-06T03:34:14.987Z,0.00
2018-11-06T03:35:15.053Z,0.00
2018-11-06T03:36:15.092Z,0.00
2018-11-06T03:37:15.121Z,0.00
2018-11-06T03:38:15.149Z,0.00
2018-11-06T03:39:15.210Z,0.00
2018-11-06T03:40:15.264Z,0.00
2018-11-06T03:41:15.296Z,0.00
2018-11-06T03:42:15.344Z,0.00
2018-11-06T03:43:15.396Z,0.00
2018-11-06T03:44:15.431Z,0.00
2018-11-06T03:45:15.481Z,0.00
2018-11-06T03:46:15.535Z,0.00
2018-11-06T03:47:15.577Z,0.00
2018-11-06T03:48:15.589Z,0.00
2018-11-06T03:49:15.654Z,0.00
2018-11-06T03:50:15.678Z,0.00
2018-11-06T03:51:15.722Z,0.00
2018-11-06T03:52:15.764Z,0.00
2018-11-06T03:53:15.932Z,0.00
2018-11-06T03:54:15.864Z,0.00
2018-11-06T03:55:15.898Z,0.00
2018-11-06T03:56:16.020Z,0.00
2018-11-06T03:57:16.050Z,0.00
2018-11-06T03:58:16.040Z,0.00
2018-11-06T03:59:16.090Z,0.00
2018-11-06T04:00:16.132Z,0.00
2018-11-06T04:01:16.196Z,0.00
2018-11-06T04:02:16.208Z,0.00
2018-11-06T04:03:16.263Z,0.00
2018-11-06T04:04:16.412Z,0.00
2018-11-06T04:05:16.381Z,0.00
2018-11-06T04:06:16.390Z,0.00
2018-11-06T04:07:16.441Z,0.00
2018-11-06T04:08:16.477Z,0.00
2018-11-06T04:09:16.515Z,0.00
2018-11-06T04:10:16.542Z,0.00
2018-11-06T04:11:16.606Z,0.00
2018-11-06T04:12:16.643Z,0.00
2018-11-06T04:13:16.696Z,0.00
2018-11-06T04:14:16.847Z,0.00
2018-11-06T04:15:16.768Z,0.00
2018-11-06T04:16:16.823Z,0.00
2018-11-06T04:17:16.861Z,0.00
2018-11-06T04:18:16.920Z,0.00
2018-11-06T04:19:16.948Z,0.00
2018-11-06T04:20:17.011Z,0.00
2018-11-06T04:21:17.047Z,0.00
2018-11-06T04:22:17.097Z,0.00
2018-11-06T04:23:17.126Z,0.00
2018-11-06T04:24:17.274Z,0.00
2018-11-06T04:25:17.267Z,0.00
2018-11-06T04:26:17.259Z,0.00
2018-11-06T04:27:17.301Z,0.00
2018-11-06T04:28:17.360Z,0.00
2018-11-06T04:29:17.375Z,0.00
2018-11-06T04:30:17.442Z,0.00
2018-11-06T04:31:17.485Z,0.00
2018-11-06T04:32:17.513Z,0.00
2018-11-06T04:33:17.565Z,0.00
2018-11-06T04:34:17.862Z,0.00
2018-11-06T04:35:17.644Z,0.00
2018-11-06T04:36:17.705Z,0.00
2018-11-06T04:37:17.781Z,0.00
2018-11-06T04:38:17.784Z,0.00
2018-11-06T04:39:17.829Z,0.00
2018-11-06T04:40:17.876Z,0.00
2018-11-06T04:41:17.907Z,0.00
2018-11-06T04:42:17.934Z,0.00
2018-11-06T04:43:17.980Z,0.00
2018-11-06T04:44:18.040Z,0.00
2018-11-06T04:45:18.182Z,0.00
2018-11-06T04:46:18.167Z,0.00
2018-11-06T04:47:18.164Z,0.00
2018-11-06T04:48:18.231Z,0.00
2018-11-06T04:49:18.289Z,0.00
2018-11-06T04:50:19.408Z,0.00
2018-11-06T04:51:18.359Z,0.00
2018-11-06T04:52:18.407Z,0.00
2018-11-06T04:53:18.424Z,0.00
2018-11-06T04:54:18.479Z,0.00
2018-11-06T04:55:18.517Z,0.00
2018-11-06T04:56:18.674Z,0.00
2018-11-06T04:57:18.612Z,0.00
2018-11-06T04:58:18.652Z,0.00
2018-11-06T04:59:18.736Z,0.00
2018-11-06T05:00:18.765Z,0.00
2018-11-06T05:01:18.820Z,0.00
2018-11-06T05:02:18.814Z,0.00
2018-11-06T05:03:18.875Z,0.00
2018-11-06T05:04:18.907Z,0.00
2018-11-06T05:05:18.940Z,0.00
2018-11-06T05:06:18.994Z,0.00
2018-11-06T05:07:19.122Z,0.00
2018-11-06T05:08:19.081Z,0.00
2018-11-06T05:09:19.123Z,0.00
2018-11-06T05:10:19.175Z,0.00
2018-11-06T05:11:19.211Z,0.00
2018-11-06T05:12:19.285Z,0.00
2018-11-06T05:13:19.435Z,0.00
2018-11-06T05:14:19.419Z,0.00
2018-11-06T05:15:19.386Z,0.00
2018-11-06T05:16:19.438Z,0.00
2018-11-06T05:17:19.476Z,0.00
2018-11-06T05:18:19.508Z,0.00
2018-11-06T05:19:19.570Z,0.00
2018-11-06T05:20:19.612Z,0.00
2018-11-06T05:21:19.635Z,0.00
2018-11-06T05:22:19.697Z,0.00
2018-11-06T05:23:19.773Z,0.00
2018-11-06T05:24:19.883Z,0.00
2018-11-06T05:25:19.864Z,0.00
2018-11-06T05:26:19.881Z,0.00
2018-11-06T05:27:19.969Z,0.00
2018-11-06T05:28:19.958Z,0.00
2018-11-06T05:29:20.006Z,0.00
2018-11-06T05:30:20.126Z,0.00
2018-11-06T05:31:20.068Z,0.00
2018-11-06T05:32:20.104Z,0.00
2018-11-06T05:33:20.169Z,0.00
2018-11-06T05:34:20.223Z,0.00
2018-11-06T05:35:20.269Z,0.00
2018-11-06T05:36:20.293Z,0.00
2018-11-06T05:37:20.352Z,0.00
2018-11-06T05:38:20.381Z,0.00
2018-11-06T05:39:20.532Z,0.00
2018-11-06T05:40:20.570Z,0.00
2018-11-06T05:41:20.552Z,0.00
2018-11-06T05:42:20.549Z,0.00
2018-11-06T05:43:20.602Z,0.00
2018-11-06T05:44:20.647Z,0.00
2018-11-06T05:45:20.712Z,0.00
2018-11-06T05:46:20.742Z,0.00
2018-11-06T05:47:20.777Z,0.00
2018-11-06T05:48:20.816Z,0.00
2018-11-06T05:49:20.896Z,0.00
2018-11-06T05:50:20.991Z,0.00
2018-11-06T05:51:20.932Z,0.00
2018-11-06T05:52:21.004Z,0.00
2018-11-06T05:53:21.147Z,0.00
2018-11-06T05:54:21.102Z,0.00
2018-11-06T05:55:21.121Z,0.00
2018-11-06T05:56:21.470Z,0.00
2018-11-06T05:57:21.216Z,0.00
2018-11-06T05:58:21.243Z,0.00
2018-11-06T05:59:21.279Z,0.00
2018-11-06T06:00:21.353Z,0.00
2018-11-06T06:01:21.367Z,0.00
2018-11-06T06:02:21.413Z,0.00
2018-11-06T06:03:21.473Z,0.00
2018-11-06T06:04:21.526Z,0.00
2018-11-06T06:05:21.570Z,0.00
2018-11-06T06:06:21.601Z,0.00
2018-11-06T06:07:21.651Z,0.00
2018-11-06T06:08:21.674Z,0.00
2018-11-06T06:09:21.732Z,0.00
2018-11-06T06:10:21.784Z,0.00
2018-11-06T06:11:21.819Z,0.00
2018-11-06T06:12:21.973Z,0.00
2018-11-06T06:13:21.917Z,0.00
2018-11-06T06:14:21.950Z,0.00
2018-11-06T06:15:21.978Z,0.00
2018-11-06T06:16:22.031Z,0.00
2018-11-06T06:17:22.149Z,0.00
2018-11-06T06:18:22.109Z,0.00
2018-11-06T06:19:22.163Z,0.00
2018-11-06T06:20:22.193Z,0.00
2018-11-06T06:21:22.227Z,0.00
2018-11-06T06:22:22.294Z,0.00
2018-11-06T06:23:22.355Z,0.00
2018-11-06T06:24:22.384Z,0.00
2018-11-06T06:25:22.431Z,0.00
2018-11-06T06:26:22.446Z,0.00
2018-11-06T06:27:22.518Z,0.00
2018-11-06T06:28:22.899Z,0.00
2018-11-06T06:29:22.594Z,0.00
2018-11-06T06:30:22.684Z,0.00
2018-11-06T06:31:22.683Z,0.00
2018-11-06T06:32:22.721Z,0.00
2018-11-06T06:33:22.860Z,0.00
2018-11-06T06:34:22.794Z,0.00
2018-11-06T06:35:22.840Z,0.00
2018-11-06T06:36:22.906Z,0.00
2018-11-06T06:37:22.940Z,0.00
2018-11-06T06:38:22.964Z,0.00
2018-11-06T06:39:23.118Z,0.00
2018-11-06T06:40:23.058Z,0.00
2018-11-06T06:41:23.109Z,0.00
2018-11-06T06:42:23.141Z,0.00
2018-11-06T06:43:23.216Z,0.00
2018-11-06T06:44:23.228Z,0.00
2018-11-06T06:45:23.329Z,0.00
2018-11-06T06:46:23.408Z,0.00
2018-11-06T06:47:23.375Z,0.00
2018-11-06T06:48:23.423Z,0.00
2018-11-06T06:49:23.547Z,0.00
2018-11-06T06:50:23.519Z,0.00
2018-11-06T06:51:23.547Z,0.00
2018-11-06T06:52:23.590Z,0.00
2018-11-06T06:53:23.634Z,0.00
2018-11-06T06:54:24.322Z,0.00
2018-11-06T06:55:23.802Z,0.00
2018-11-06T06:56:23.820Z,0.00
2018-11-06T06:57:23.847Z,0.00
2018-11-06T06:58:23.881Z,0.00
2018-11-06T06:59:23.939Z,0.00
2018-11-06T07:00:24.216Z,0.00
2018-11-06T07:01:23.981Z,0.00
2018-11-06T07:02:24.062Z,0.00
2018-11-06T07:03:24.065Z,0.00
2018-11-06T07:04:24.106Z,0.00
2018-11-06T07:05:24.162Z,0.00
2018-11-06T07:06:24.206Z,0.00
2018-11-06T07:07:24.282Z,0.00
2018-11-06T07:08:24.269Z,0.00
2018-11-06T07:09:24.310Z,0.00
2018-11-06T07:10:24.606Z,0.00
2018-11-06T07:11:24.424Z,0.00
2018-11-06T07:12:24.441Z,0.00
2018-11-06T07:13:24.514Z,0.00
2018-11-06T07:14:24.529Z,0.00
2018-11-06T07:15:24.602Z,0.00
2018-11-06T07:16:24.675Z,0.00
2018-11-06T07:17:24.665Z,0.00
2018-11-06T07:18:24.757Z,0.00
2018-11-06T07:19:24.773Z,0.00
2018-11-06T07:20:24.809Z,0.00
2018-11-06T07:21:24.847Z,0.00
2018-11-06T07:22:24.896Z,0.00
2018-11-06T07:23:24.933Z,0.00
2018-11-06T07:24:25.014Z,0.00
2018-11-06T07:25:24.998Z,0.00
2018-11-06T07:26:25.070Z,0.00
2018-11-06T07:27:25.105Z,0.00
2018-11-06T07:28:25.169Z,0.00
2018-11-06T07:29:25.192Z,0.00
2018-11-06T07:30:25.237Z,0.00
2018-11-06T07:31:25.455Z,0.00
2018-11-06T07:32:25.300Z,0.00
2018-11-06T07:33:25.358Z,0.00
2018-11-06T07:34:25.422Z,0.00
2018-11-06T07:35:25.560Z,0.00
2018-11-06T07:36:25.507Z,0.00
2018-11-06T07:37:25.523Z,0.00
2018-11-06T07:38:25.568Z,0.00
2018-11-06T07:39:25.635Z,0.00
2018-11-06T07:40:25.683Z,0.00
2018-11-06T07:41:25.717Z,0.00
2018-11-06T07:42:25.845Z,0.00
2018-11-06T07:43:25.801Z,0.00
2018-11-06T07:44:25.842Z,0.00
2018-11-06T07:45:25.869Z,0.00
2018-11-06T07:46:25.947Z,0.00
2018-11-06T07:47:25.962Z,0.00
2018-11-06T07:48:25.998Z,0.00
2018-11-06T07:49:26.093Z,0.00
2018-11-06T07:50:26.170Z,0.00
2018-11-06T07:51:26.200Z,0.00
2018-11-06T07:52:26.484Z,0.00
2018-11-06T07:53:26.241Z,0.00
2018-11-06T07:54:26.273Z,4.00
2018-11-06T07:55:26.369Z,4.00
2018-11-06T07:56:26.515Z,0.00
2018-11-06T07:57:26.414Z,4.00
2018-11-06T07:58:26.545Z,4.00
2018-11-06T07:59:26.499Z,4.00
2018-11-06T08:00:26.516Z,8.00
2018-11-06T08:01:26.618Z,8.00
2018-11-06T08:02:26.629Z,8.00
2018-11-06T08:03:26.663Z,8.00
2018-11-06T08:04:26.850Z,16.00
2018-11-06T08:05:26.747Z,20.00
2018-11-06T08:06:26.906Z,32.00
2018-11-06T08:07:26.837Z,36.00
2018-11-06T08:08:26.981Z,40.00
2018-11-06T08:09:26.914Z,48.00
2018-11-06T08:10:26.963Z,56.00
2018-11-06T08:11:27.028Z,64.00
2018-11-06T08:12:27.050Z,76.00
2018-11-06T08:13:27.080Z,96.00
2018-11-06T08:14:27.152Z,116.00
2018-11-06T08:15:27.191Z,124.00
2018-11-06T08:16:27.240Z,156.00
2018-11-06T08:17:27.273Z,196.00
2018-11-06T08:18:27.614Z,212.00
2018-11-06T08:19:27.354Z,216.00
2018-11-06T08:20:27.421Z,228.00
2018-11-06T08:21:27.432Z,268.00
2018-11-06T08:22:27.492Z,268.00
2018-11-06T08:23:27.619Z,276.00
2018-11-06T08:24:27.555Z,328.00
2018-11-06T08:25:27.626Z,424.00
2018-11-06T08:26:27.667Z,516.00
2018-11-06T08:27:27.697Z,540.00
2018-11-06T08:28:27.749Z,596.00
2018-11-06T08:29:27.827Z,616.00
2018-11-06T08:30:27.889Z,700.00
2018-11-06T08:31:28.529Z,700.00
2018-11-06T08:32:28.676Z,720.00
2018-11-06T08:33:28.056Z,760.00
2018-11-06T08:34:28.009Z,812.00
2018-11-06T08:35:28.076Z,924.00
2018-11-06T08:36:28.141Z,1048.00
2018-11-06T08:37:28.161Z,1124.00
2018-11-06T08:38:28.180Z,1264.00
2018-11-06T08:39:28.220Z,1396.00
2018-11-06T08:40:28.262Z,1364.00
2018-11-06T08:41:28.353Z,1284.00
2018-11-06T08:42:28.437Z,1268.00
2018-11-06T08:43:28.546Z,1424.00
2018-11-06T08:44:28.434Z,1532.00
2018-11-06T08:45:28.476Z,1664.00
2018-11-06T08:46:28.506Z,1976.00
2018-11-06T08:47:28.583Z,2028.00
2018-11-06T08:48:28.605Z,2152.00
2018-11-06T08:49:28.644Z,2604.00
2018-11-06T08:50:28.724Z,3036.00
2018-11-06T08:51:28.739Z,3480.00
2018-11-06T08:52:28.784Z,3948.00
2018-11-06T08:53:28.845Z,4624.00
2018-11-06T08:54:28.929Z,5264.00
2018-11-06T08:55:28.899Z,5820.00
2018-11-06T08:56:28.967Z,5920.00
2018-11-06T08:57:28.998Z,6032.00
2018-11-06T08:58:29.048Z,6016.00
2018-11-06T08:59:29.098Z,5572.00
2018-11-06T09:00:29.126Z,5920.00
2018-11-06T09:01:29.162Z,7716.00
2018-11-06T09:02:29.280Z,9380.00
2018-11-06T09:03:29.358Z,10080.00
2018-11-06T09:04:29.320Z,10952.00
2018-11-06T09:05:29.353Z,12020.00
2018-11-06T09:06:29.387Z,11448.00
2018-11-06T09:07:29.423Z,12188.00
2018-11-06T09:08:29.479Z,12084.00
2018-11-06T09:09:29.536Z,11388.00
2018-11-06T09:10:29.578Z,10516.00
2018-11-06T09:11:29.614Z,9932.00
2018-11-06T09:12:29.667Z,9180.00
2018-11-06T09:13:29.778Z,8696.00
2018-11-06T09:14:29.737Z,10076.00
2018-11-06T09:15:29.779Z,11268.00
2018-11-06T09:16:29.833Z,11868.00
2018-11-06T09:17:29.883Z,14420.00
2018-11-06T09:18:29.965Z,12996.00
2018-11-06T09:19:29.962Z,10176.00
2018-11-06T09:20:30.029Z,8956.00
2018-11-06T09:21:30.065Z,8728.00
2018-11-06T09:22:30.108Z,9192.00
2018-11-06T09:23:30.275Z,10400.00
2018-11-06T09:24:30.243Z,12276.00
2018-11-06T09:25:30.239Z,14308.00
2018-11-06T09:26:30.295Z,13980.00
2018-11-06T09:27:30.345Z,12416.00
2018-11-06T09:28:30.464Z,12684.00
2018-11-06T09:29:30.401Z,11448.00
2018-11-06T09:30:30.446Z,10508.00
2018-11-06T09:31:30.543Z,10564.00
2018-11-06T09:32:30.536Z,8352.00
2018-11-06T09:33:30.596Z,8100.00
2018-11-06T09:34:30.626Z,8040.00
2018-11-06T09:35:30.716Z,7152.00
2018-11-06T09:36:30.732Z,7140.00
2018-11-06T09:37:30.778Z,7576.00
2018-11-06T09:38:30.816Z,7712.00
2018-11-06T09:39:30.845Z,7312.00
2018-11-06T09:41:30.982Z,6816.00
2018-11-06T09:42:31.002Z,6860.00
2018-11-06T09:43:31.033Z,7696.00
2018-11-06T09:44:31.083Z,7652.00
2018-11-06T09:45:31.205Z,6996.00
2018-11-06T09:46:31.180Z,6164.00
2018-11-06T09:47:31.213Z,5700.00
2018-11-06T09:48:31.307Z,5248.00
2018-11-06T09:49:31.414Z,4616.00
2018-11-06T09:50:31.347Z,4072.00
2018-11-06T09:51:31.402Z,3684.00
2018-11-06T09:52:31.426Z,3944.00
2018-11-06T09:53:31.485Z,3680.00
2018-11-06T09:54:31.531Z,3212.00
2018-11-06T09:55:31.553Z,3100.00
2018-11-06T09:56:31.622Z,3496.00
2018-11-06T09:57:31.646Z,3716.00
2018-11-06T09:58:31.704Z,3960.00
2018-11-06T09:59:31.728Z,3924.00
2018-11-06T10:00:31.797Z,4192.00
2018-11-06T10:01:31.830Z,4288.00
2018-11-06T10:02:31.941Z,3752.00
2018-11-06T10:03:31.930Z,3664.00
2018-11-06T10:04:31.965Z,4052.00
2018-11-06T10:05:32.052Z,4512.00
2018-11-06T10:06:32.272Z,4420.00
2018-11-06T10:07:32.117Z,5052.00
2018-11-06T10:08:32.146Z,5348.00
2018-11-06T10:09:32.177Z,6892.00
2018-11-06T10:10:32.234Z,6224.00
2018-11-06T10:11:32.307Z,5416.00
2018-11-06T10:12:32.329Z,6108.00
2018-11-06T10:13:32.358Z,7180.00
2018-11-06T10:14:32.409Z,7164.00
2018-11-06T10:15:32.511Z,6788.00
2018-11-06T10:16:32.501Z,6704.00
2018-11-06T10:17:32.525Z,5980.00
2018-11-06T10:18:32.585Z,5928.00
2018-11-06T10:19:32.635Z,5920.00
2018-11-06T10:20:32.712Z,5972.00
2018-11-06T10:21:32.713Z,6168.00
2018-11-06T10:22:32.802Z,6212.00
2018-11-06T10:23:32.907Z,5976.00
2018-11-06T10:24:32.835Z,5912.00
2018-11-06T10:25:32.871Z,6060.00
2018-11-06T10:26:32.953Z,6348.00
2018-11-06T10:27:32.984Z,6700.00
2018-11-06T10:28:33.018Z,6836.00
2018-11-06T10:29:33.070Z,7176.00
2018-11-06T10:30:33.181Z,7992.00
2018-11-06T10:31:33.139Z,8840.00
2018-11-06T10:32:33.193Z,9528.00
2018-11-06T10:33:33.220Z,8640.00
2018-11-06T10:34:33.280Z,9156.00
2018-11-06T10:35:33.315Z,10128.00
2018-11-06T10:36:33.368Z,11336.00
2018-11-06T10:37:33.401Z,12496.00
2018-11-06T10:38:33.459Z,11752.00
2018-11-06T10:39:33.611Z,12804.00
2018-11-06T10:40:33.566Z,13536.00
2018-11-06T10:41:33.592Z,15096.00
2018-11-06T10:42:33.634Z,13604.00
2018-11-06T10:43:33.724Z,16408.00
2018-11-06T10:44:33.733Z,27936.00
2018-11-06T10:45:33.786Z,36160.00
2018-11-06T10:46:33.826Z,33984.00
2018-11-06T10:47:33.863Z,25664.00
2018-11-06T10:48:33.916Z,20864.00
2018-11-06T10:49:33.948Z,20768.00
2018-11-06T10:50:34.002Z,19456.00
2018-11-06T10:51:34.053Z,22400.00
2018-11-06T10:52:34.072Z,25696.00
2018-11-06T10:53:34.152Z,24160.00
2018-11-06T10:54:34.231Z,23040.00
2018-11-06T10:55:34.224Z,22560.00
2018-11-06T10:56:34.270Z,23200.00
2018-11-06T10:57:34.311Z,26592.00
2018-11-06T10:58:34.383Z,26144.00
2018-11-06T10:59:34.402Z,28448.00
2018-11-06T11:00:34.503Z,38432.00
2018-11-06T11:01:34.507Z,37632.00
2018-11-06T11:02:34.545Z,36192.00
2018-11-06T11:03:34.600Z,38528.00
2018-11-06T11:04:34.643Z,35296.00
2018-11-06T11:05:34.726Z,25888.00
2018-11-06T11:06:34.749Z,21792.00
2018-11-06T11:07:34.786Z,19072.00
2018-11-06T11:08:34.833Z,18048.00
2018-11-06T11:09:34.881Z,26464.00
2018-11-06T11:10:35.034Z,43328.00
2018-11-06T11:11:34.960Z,32448.00
2018-11-06T11:12:35.241Z,32064.00
2018-11-06T11:13:35.092Z,33184.00
2018-11-06T11:14:35.109Z,30400.00
2018-11-06T11:15:35.176Z,27744.00
2018-11-06T11:16:35.254Z,31008.00
2018-11-06T11:17:35.262Z,34432.00
2018-11-06T11:18:35.305Z,37344.00
2018-11-06T11:19:35.378Z,36288.00
2018-11-06T11:20:35.400Z,30592.00
2018-11-06T11:21:35.466Z,39456.00
2018-11-06T11:22:35.509Z,33728.00
2018-11-06T11:23:35.579Z,28544.00
2018-11-06T11:24:35.581Z,27104.00
2018-11-06T11:25:35.636Z,42016.00
2018-11-06T11:26:35.693Z,35104.00
2018-11-06T11:27:35.747Z,31776.00
2018-11-06T11:28:35.797Z,27296.00
2018-11-06T11:29:35.853Z,26368.00
2018-11-06T11:30:35.862Z,26368.00
2018-11-06T11:31:35.973Z,28672.00
2018-11-06T11:32:35.988Z,33696.00
2018-11-06T11:33:36.027Z,37664.00
2018-11-06T11:34:36.069Z,38592.00
2018-11-06T11:35:36.120Z,38464.00
2018-11-06T11:36:36.173Z,53824.00
2018-11-06T11:37:36.222Z,41472.00
2018-11-06T11:38:36.290Z,41696.00
2018-11-06T11:39:36.327Z,41920.00
2018-11-06T11:40:36.373Z,41856.00
2018-11-06T11:41:36.417Z,41856.00
2018-11-06T11:42:36.563Z,51840.00
2018-11-06T11:43:36.523Z,60032.00
2018-11-06T11:44:36.575Z,56896.00
2018-11-06T11:45:36.641Z,54976.00
2018-11-06T11:46:36.681Z,67296.00
2018-11-06T11:47:36.722Z,92320.00
2018-11-06T11:48:36.768Z,58112.00
2018-11-06T11:49:36.830Z,60352.00
2018-11-06T11:50:36.892Z,73312.00
2018-11-06T11:51:36.920Z,116480.00
2018-11-06T11:52:36.989Z,72768.00
2018-11-06T11:53:37.126Z,47680.00
2018-11-06T11:54:37.102Z,42848.00
2018-11-06T11:55:37.126Z,42304.00
2018-11-06T11:56:37.181Z,41600.00
2018-11-06T11:57:37.258Z,43456.00
2018-11-06T11:58:37.425Z,43136.00
2018-11-06T11:59:37.357Z,44128.00
2018-11-06T12:00:37.418Z,45632.00
2018-11-06T12:01:37.479Z,44512.00
2018-11-06T12:02:37.492Z,46336.00
2018-11-06T12:03:37.561Z,46016.00
2018-11-06T12:04:37.596Z,49056.00
2018-11-06T12:05:37.649Z,61120.00
2018-11-06T12:06:37.708Z,69824.00
2018-11-06T12:07:37.781Z,54880.00
2018-11-06T12:08:37.811Z,55264.00
2018-11-06T12:09:37.982Z,51040.00
2018-11-06T12:10:37.966Z,44832.00
2018-11-06T12:11:37.977Z,41568.00
2018-11-06T12:12:38.001Z,39488.00
2018-11-06T12:13:38.070Z,39328.00
2018-11-06T12:14:38.134Z,38496.00
2018-11-06T12:15:38.227Z,41632.00
2018-11-06T12:16:38.238Z,41376.00
2018-11-06T12:17:38.322Z,42880.00
2018-11-06T12:18:38.329Z,41984.00
2018-11-06T12:19:38.383Z,40704.00
2018-11-06T12:20:38.543Z,47072.00
2018-11-06T12:21:38.498Z,48288.00
2018-11-06T12:22:38.580Z,45088.00
2018-11-06T12:23:38.572Z,52352.00
2018-11-06T12:24:38.799Z,53536.00
2018-11-06T12:25:38.836Z,46272.00
2018-11-06T12:26:38.741Z,48640.00
2018-11-06T12:27:38.808Z,55584.00
2018-11-06T12:28:38.844Z,46176.00
2018-11-06T12:29:38.888Z,40384.00
2018-11-06T12:30:38.971Z,41504.00
2018-11-06T12:31:39.109Z,45312.00
2018-11-06T12:32:39.112Z,61856.00
2018-11-06T12:33:39.130Z,60672.00
2018-11-06T12:34:39.184Z,50080.00
2018-11-06T12:35:39.204Z,125984.00
2018-11-06T12:36:39.522Z,57568.00
2018-11-06T12:37:39.311Z,43616.00
2018-11-06T12:38:39.367Z,68416.00
2018-11-06T12:39:39.425Z,63552.00
2018-11-06T12:40:39.499Z,50464.00
2018-11-06T12:41:39.538Z,56992.00
2018-11-06T12:42:39.608Z,135904.00
2018-11-06T12:43:39.863Z,43040.00
2018-11-06T12:44:39.701Z,47168.00
2018-11-06T12:45:39.752Z,54176.00
2018-11-06T12:46:39.789Z,59136.00
2018-11-06T12:47:39.863Z,105760.00